Time;durP1;ratioP1;P1;durP2;ratioP2;P2;SDS_P1;SDS_P2;PMS_P1;PMS_P2;Temp;Humidity;BMP_temperature;BMP_pressure;BME280_temperature;BME280_humidity;BME280_pressure;Samples;Min_cycle;Max_cycle;Signal;HPM_P1;HPM_P2
2021/07/04 00:00:42;;;;;;;3.40;2.20;;;22.70;70.10;;;;;;2513009;53;21225;-88
2021/07/04 00:03:09;;;;;;;4.10;2.33;;;22.70;70.20;;;;;;2523915;53;20944;-88
2021/07/04 00:05:38;;;;;;;3.30;1.85;;;22.70;70.30;;;;;;2526193;53;20991;-88
2021/07/04 00:08:04;;;;;;;3.60;1.95;;;22.70;70.30;;;;;;2506748;53;20995;-89
2021/07/04 00:10:37;;;;;;;3.05;1.77;;;22.70;70.40;;;;;;2278625;55;20991;-89
2021/07/04 00:13:03;;;;;;;3.25;1.77;;;22.70;70.30;;;;;;2523864;52;21537;-90
2021/07/04 00:15:34;;;;;;;4.28;2.10;;;22.70;70.50;;;;;;2520035;53;20965;-89
2021/07/04 00:18:01;;;;;;;4.28;2.03;;;22.70;70.60;;;;;;2280015;55;22507;-89
2021/07/04 00:20:27;;;;;;;3.20;1.80;;;22.70;70.60;;;;;;2523508;53;21007;-89
2021/07/04 00:22:56;;;;;;;3.50;1.80;;;22.70;70.60;;;;;;2526317;53;20924;-89
2021/07/04 00:25:24;;;;;;;3.37;2.08;;;22.70;70.60;;;;;;2272876;55;20922;-89
2021/07/04 00:27:50;;;;;;;3.25;1.90;;;22.70;70.60;;;;;;2516783;53;20967;-88
2021/07/04 00:30:17;;;;;;;3.45;2.00;;;22.70;70.60;;;;;;2525215;53;20989;-88
2021/07/04 00:32:43;;;;;;;3.67;2.28;;;22.70;70.60;;;;;;2297321;55;20872;-88
2021/07/04 00:35:11;;;;;;;4.72;2.67;;;22.70;70.60;;;;;;2297972;55;21647;-88
2021/07/04 00:37:37;;;;;;;3.67;2.53;;;22.70;70.60;;;;;;2525440;53;20975;-88
2021/07/04 00:40:04;;;;;;;4.45;2.58;;;22.70;70.70;;;;;;2525581;53;21019;-88
2021/07/04 00:42:30;;;;;;;3.70;2.20;;;22.70;70.80;;;;;;2526858;53;20919;-87
2021/07/04 00:44:57;;;;;;;4.25;2.28;;;22.70;70.80;;;;;;2518273;53;21070;-88
2021/07/04 00:47:23;;;;;;;3.67;2.28;;;22.70;70.80;;;;;;2493320;53;20938;-90
2021/07/04 00:49:50;;;;;;;4.68;2.78;;;22.70;70.80;;;;;;2515277;53;21009;-88
2021/07/04 00:52:17;;;;;;;4.55;2.70;;;22.70;70.80;;;;;;2524262;53;20991;-89
2021/07/04 00:54:43;;;;;;;4.22;2.70;;;22.70;70.80;;;;;;2526502;53;20987;-88
2021/07/04 00:57:10;;;;;;;4.70;2.75;;;22.70;70.80;;;;;;2522077;53;21014;-86
2021/07/04 00:59:36;;;;;;;4.45;2.78;;;22.70;70.80;;;;;;2299385;55;21032;-88
2021/07/04 01:02:03;;;;;;;3.45;2.33;;;22.70;71.40;;;;;;2520949;52;20963;-89
2021/07/04 01:04:29;;;;;;;3.47;2.37;;;22.70;70.70;;;;;;2521943;53;20924;-88
2021/07/04 01:06:56;;;;;;;3.70;2.37;;;22.70;70.80;;;;;;2525281;53;21480;-88
2021/07/04 01:09:22;;;;;;;4.10;2.83;;;22.70;70.80;;;;;;2523508;53;20992;-89
2021/07/04 01:11:49;;;;;;;5.72;2.40;;;22.70;70.70;;;;;;2522873;53;20943;-89
2021/07/04 01:14:16;;;;;;;4.57;2.80;;;22.70;70.70;;;;;;2302443;55;21119;-88
2021/07/04 01:16:43;;;;;;;3.80;2.45;;;22.70;70.80;;;;;;2297464;55;21101;-88
2021/07/04 01:19:10;;;;;;;3.72;2.10;;;22.70;70.80;;;;;;2296324;55;20905;-88
2021/07/04 01:21:39;;;;;;;3.25;1.85;;;22.70;70.80;;;;;;2527137;53;21098;-88
2021/07/04 01:24:06;;;;;;;3.03;1.80;;;22.70;70.90;;;;;;2525607;53;21015;-88
2021/07/04 01:26:33;;;;;;;3.65;1.92;;;22.70;70.90;;;;;;2522285;53;20954;-88
2021/07/04 01:28:59;;;;;;;2.80;1.52;;;22.70;70.90;;;;;;2525245;53;21024;-88
2021/07/04 01:31:26;;;;;;;3.60;1.73;;;22.70;70.90;;;;;;2525903;53;21043;-88
2021/07/04 01:33:55;;;;;;;3.10;1.40;;;22.70;71.00;;;;;;2524880;53;20896;-89
2021/07/04 01:36:21;;;;;;;2.85;1.50;;;22.70;71.00;;;;;;2513409;53;21019;-90
2021/07/04 01:38:47;;;;;;;3.50;1.70;;;22.70;70.90;;;;;;2524665;53;20945;-89
2021/07/04 01:41:13;;;;;;;3.08;1.83;;;22.70;71.00;;;;;;2523976;53;21310;-88
2021/07/04 01:43:40;;;;;;;4.80;2.28;;;22.70;70.90;;;;;;2527974;53;21068;-89
2021/07/04 01:46:06;;;;;;;3.65;1.70;;;22.70;70.90;;;;;;2525615;53;22415;-89
2021/07/04 01:48:32;;;;;;;3.08;1.77;;;22.70;71.10;;;;;;2299298;55;21001;-89
2021/07/04 01:50:59;;;;;;;3.20;1.73;;;22.70;70.90;;;;;;2525355;53;20922;-88
2021/07/04 01:53:25;;;;;;;4.22;2.30;;;22.70;70.90;;;;;;2525886;53;21007;-88
2021/07/04 01:55:52;;;;;;;3.37;1.77;;;22.70;70.90;;;;;;2526337;53;20923;-88
2021/07/04 01:58:18;;;;;;;3.00;1.80;;;22.70;70.90;;;;;;2522674;53;21039;-89
2021/07/04 02:00:44;;;;;;;3.60;2.00;;;22.70;70.90;;;;;;2524735;53;21006;-88
2021/07/04 02:03:11;;;;;;;3.15;1.60;;;22.70;70.90;;;;;;2527148;53;21011;-87
2021/07/04 02:05:38;;;;;;;2.70;1.50;;;22.70;70.90;;;;;;2516475;53;21021;-88
2021/07/04 02:08:05;;;;;;;3.20;1.85;;;22.60;70.80;;;;;;2289760;55;20976;-87
2021/07/04 02:10:33;;;;;;;2.78;1.60;;;22.60;70.80;;;;;;2520394;53;21003;-88
2021/07/04 02:13:00;;;;;;;3.12;1.65;;;22.60;70.80;;;;;;2524672;53;21042;-88
2021/07/04 02:15:28;;;;;;;2.80;1.65;;;22.60;70.80;;;;;;2298367;55;20947;-87
2021/07/04 02:17:54;;;;;;;3.40;1.67;;;22.50;70.70;;;;;;2297765;55;20931;-88
2021/07/04 02:20:35;;;;;;;3.05;1.77;;;22.50;70.70;;;;;;2300138;55;21619;-88
2021/07/04 02:23:23;;;;;;;3.42;2.10;;;22.60;70.50;;;;;;2298454;55;20996;-88
2021/07/04 02:25:50;;;;;;;3.72;2.03;;;22.50;70.30;;;;;;2297450;55;20972;-88
2021/07/04 02:28:18;;;;;;;3.83;2.00;;;22.50;70.80;;;;;;2297710;55;21023;-87
2021/07/04 02:30:44;;;;;;;3.00;1.73;;;22.40;70.70;;;;;;2301838;55;21007;-87
2021/07/04 02:33:12;;;;;;;3.62;2.05;;;22.40;70.70;;;;;;2524299;53;20991;-87
2021/07/04 02:35:54;;;;;;;3.15;1.90;;;22.40;70.80;;;;;;2525946;53;21019;-88
2021/07/04 02:38:21;;;;;;;3.50;2.15;;;22.40;70.80;;;;;;2277064;55;21032;-89
2021/07/04 02:40:49;;;;;;;4.28;1.90;;;22.30;70.90;;;;;;2524039;53;20947;-89
2021/07/04 02:43:17;;;;;;;3.03;1.80;;;22.30;71.00;;;;;;2526339;53;21078;-88
2021/07/04 02:45:44;;;;;;;3.60;2.05;;;22.30;71.00;;;;;;2500054;54;21545;-88
2021/07/04 02:48:10;;;;;;;3.37;1.98;;;22.30;71.10;;;;;;2525372;53;21068;-88
2021/07/04 02:50:37;;;;;;;2.92;1.70;;;22.20;71.00;;;;;;2526124;53;20996;-88
2021/07/04 02:53:03;;;;;;;4.00;1.80;;;22.20;71.00;;;;;;2523522;53;20916;-88
2021/07/04 02:55:30;;;;;;;3.50;1.95;;;22.20;71.10;;;;;;2520160;52;21006;-88
2021/07/04 02:57:56;;;;;;;3.40;1.95;;;22.20;71.10;;;;;;2523803;53;21085;-88
2021/07/04 03:00:24;;;;;;;3.62;2.08;;;22.20;71.10;;;;;;2520096;53;20972;-89
2021/07/04 03:02:50;;;;;;;3.87;2.22;;;22.20;71.10;;;;;;2296558;55;20932;-88
2021/07/04 03:05:17;;;;;;;3.45;2.00;;;22.20;71.20;;;;;;2527861;52;21031;-89
2021/07/04 03:07:44;;;;;;;4.43;1.80;;;22.20;71.20;;;;;;2293808;54;20955;-89
2021/07/04 03:10:16;;;;;;;4.00;1.90;;;22.20;71.20;;;;;;2524183;53;20956;-88
2021/07/04 03:12:43;;;;;;;3.10;1.70;;;22.10;71.00;;;;;;2524441;53;20963;-89
2021/07/04 03:15:10;;;;;;;3.20;1.50;;;22.10;71.10;;;;;;2524815;53;21423;-88
2021/07/04 03:17:36;;;;;;;3.97;2.05;;;22.10;71.10;;;;;;2524355;53;21019;-88
2021/07/04 03:20:07;;;;;;;4.05;1.95;;;22.10;71.10;;;;;;2526028;53;20948;-88
2021/07/04 03:22:33;;;;;;;3.22;1.80;;;22.10;70.90;;;;;;2500056;54;21012;-88
2021/07/04 03:25:00;;;;;;;3.20;1.90;;;22.10;71.10;;;;;;2525973;53;20896;-90
2021/07/04 03:27:26;;;;;;;3.70;2.15;;;22.00;71.00;;;;;;2522097;53;20972;-88
2021/07/04 03:29:52;;;;;;;4.40;2.25;;;22.00;71.00;;;;;;2524647;53;21943;-88
2021/07/04 03:32:18;;;;;;;5.37;2.58;;;22.00;71.00;;;;;;2525636;53;21015;-88
2021/07/04 03:34:45;;;;;;;3.65;2.10;;;22.00;71.10;;;;;;2526415;53;20927;-89
2021/07/04 03:37:11;;;;;;;3.90;2.20;;;22.00;71.10;;;;;;2299552;55;20983;-88
2021/07/04 03:39:38;;;;;;;3.12;1.73;;;21.90;71.00;;;;;;2515347;52;21054;-88
2021/07/04 03:42:04;;;;;;;3.25;1.90;;;21.90;71.20;;;;;;2286941;55;20977;-88
2021/07/04 03:44:30;;;;;;;3.53;2.05;;;21.90;71.30;;;;;;2525977;53;20932;-88
2021/07/04 03:46:56;;;;;;;3.22;1.83;;;21.90;72.10;;;;;;2525156;53;20963;-88
2021/07/04 03:49:23;;;;;;;3.45;1.98;;;21.90;71.50;;;;;;2525387;53;20999;-88
2021/07/04 03:51:49;;;;;;;5.93;2.08;;;21.90;71.50;;;;;;2524383;53;20943;-88
2021/07/04 03:54:16;;;;;;;3.83;2.35;;;21.90;71.50;;;;;;2525791;53;21600;-86
2021/07/04 03:56:42;;;;;;;4.22;1.98;;;21.90;71.70;;;;;;2526027;53;20943;-89
2021/07/04 03:59:10;;;;;;;4.37;2.08;;;21.90;72.50;;;;;;2524113;54;20967;-89
2021/07/04 04:01:36;;;;;;;3.95;2.35;;;21.90;71.70;;;;;;2523651;53;20951;-88
2021/07/04 04:04:03;;;;;;;3.17;1.90;;;21.90;71.80;;;;;;2525051;53;21010;-88
2021/07/04 04:06:29;;;;;;;3.67;2.08;;;21.90;71.80;;;;;;2306355;55;21035;-90
2021/07/04 04:08:55;;;;;;;3.80;2.40;;;21.90;71.80;;;;;;2289579;55;20971;-90
2021/07/04 04:11:22;;;;;;;3.58;2.20;;;21.90;71.80;;;;;;2294409;55;21862;-88
2021/07/04 04:13:48;;;;;;;3.33;1.77;;;21.90;71.80;;;;;;2299810;55;20939;-89
2021/07/04 04:16:15;;;;;;;3.72;2.28;;;21.90;71.90;;;;;;2526070;53;20932;-88
2021/07/04 04:18:41;;;;;;;3.90;2.37;;;22.00;72.00;;;;;;2525829;53;21878;-89
2021/07/04 04:21:08;;;;;;;4.05;2.10;;;22.00;72.10;;;;;;2524602;53;20927;-88
2021/07/04 04:23:38;;;;;;;4.12;2.42;;;21.90;71.90;;;;;;2297894;55;21075;-88
2021/07/04 04:26:04;;;;;;;3.87;2.40;;;22.00;72.00;;;;;;2526024;53;20923;-89
2021/07/04 04:28:31;;;;;;;3.95;2.50;;;22.00;72.10;;;;;;2508728;53;22065;-88
2021/07/04 04:30:57;;;;;;;3.50;2.30;;;22.00;72.00;;;;;;2520755;53;20951;-89
2021/07/04 04:33:23;;;;;;;6.30;2.65;;;21.90;71.90;;;;;;2524666;53;20996;-88
2021/07/04 04:35:50;;;;;;;3.67;2.37;;;21.90;71.90;;;;;;2524137;53;21981;-87
2021/07/04 04:38:16;;;;;;;3.10;1.90;;;21.90;71.90;;;;;;2296103;55;20994;-88
2021/07/04 04:40:43;;;;;;;3.53;1.92;;;21.90;72.10;;;;;;2525124;53;20935;-90
2021/07/04 04:43:10;;;;;;;3.62;2.40;;;21.90;72.20;;;;;;2516503;52;20997;-87
2021/07/04 04:45:36;;;;;;;3.72;2.33;;;21.90;72.20;;;;;;2520563;53;21015;-88
2021/07/04 04:48:02;;;;;;;3.40;2.10;;;21.90;72.30;;;;;;2518816;53;21055;-88
2021/07/04 04:50:29;;;;;;;3.87;2.28;;;21.90;72.30;;;;;;2523571;53;20993;-88
2021/07/04 04:52:55;;;;;;;5.35;2.58;;;22.00;72.50;;;;;;2512189;54;20944;-89
2021/07/04 04:55:21;;;;;;;5.05;2.45;;;22.00;72.50;;;;;;2526500;53;21060;-89
2021/07/04 04:57:48;;;;;;;6.25;3.35;;;22.00;72.50;;;;;;2509031;53;20918;-87
2021/07/04 05:00:14;;;;;;;4.72;3.30;;;22.00;72.40;;;;;;2297255;55;20921;-88
2021/07/04 05:02:42;;;;;;;6.18;3.42;;;22.00;72.40;;;;;;2527219;53;20899;-88
2021/07/04 05:05:09;;;;;;;4.60;3.25;;;22.00;72.40;;;;;;2526455;53;20938;-89
2021/07/04 05:07:35;;;;;;;4.68;3.17;;;22.00;72.30;;;;;;2279917;55;20943;-89
2021/07/04 05:10:02;;;;;;;5.00;3.20;;;22.00;72.40;;;;;;2525889;53;20939;-88
2021/07/04 05:12:29;;;;;;;5.70;2.87;;;22.00;72.40;;;;;;2523526;53;20967;-87
2021/07/04 05:14:55;;;;;;;4.25;2.53;;;22.00;72.40;;;;;;2524939;53;21092;-88
2021/07/04 05:17:21;;;;;;;4.18;2.75;;;22.00;72.40;;;;;;2297750;55;20967;-88
2021/07/04 05:19:48;;;;;;;4.65;3.10;;;22.10;72.60;;;;;;2525064;55;20927;-87
2021/07/04 05:22:14;;;;;;;4.50;2.67;;;22.10;72.70;;;;;;2514031;55;20979;-88
2021/07/04 05:24:41;;;;;;;4.15;2.65;;;22.10;72.70;;;;;;2297004;55;21412;-87
2021/07/04 05:27:07;;;;;;;4.15;2.62;;;22.10;72.80;;;;;;2525361;55;20986;-88
2021/07/04 05:29:33;;;;;;;4.45;2.78;;;22.20;72.90;;;;;;2522086;53;21020;-88
2021/07/04 05:32:00;;;;;;;4.50;2.92;;;22.20;72.80;;;;;;2521527;54;21056;-89
2021/07/04 05:34:27;;;;;;;3.85;2.47;;;22.20;72.80;;;;;;2499634;55;1294798;-87
2021/07/04 05:36:53;;;;;;;4.15;2.70;;;22.20;72.80;;;;;;2523822;55;21528;-89
2021/07/04 05:39:19;;;;;;;3.83;2.37;;;22.30;72.80;;;;;;2296741;55;20935;-88
2021/07/04 05:41:46;;;;;;;3.58;2.28;;;22.30;72.70;;;;;;2523935;55;20975;-87
2021/07/04 05:44:12;;;;;;;3.85;2.37;;;22.30;72.70;;;;;;2522335;54;21007;-87
2021/07/04 05:46:38;;;;;;;6.37;2.40;;;22.30;72.70;;;;;;2279707;55;21020;-89
2021/07/04 05:49:05;;;;;;;4.30;2.78;;;22.30;72.60;;;;;;2262166;56;20956;-89
2021/07/04 05:51:32;;;;;;;4.05;2.55;;;22.40;72.70;;;;;;2496501;54;20881;-88
2021/07/04 05:53:58;;;;;;;4.43;2.58;;;22.40;72.70;;;;;;2515310;52;21383;-89
2021/07/04 05:56:24;;;;;;;4.50;3.00;;;22.40;72.80;;;;;;2519220;55;20938;-88
2021/07/04 05:58:51;;;;;;;4.18;2.55;;;22.40;72.80;;;;;;2506668;53;20976;-88
2021/07/04 06:01:18;;;;;;;4.07;2.70;;;22.40;72.80;;;;;;2521957;53;20899;-88
2021/07/04 06:03:45;;;;;;;4.53;2.40;;;22.40;72.70;;;;;;2523631;53;21015;-88
2021/07/04 06:06:11;;;;;;;5.55;2.40;;;22.40;72.80;;;;;;2525385;54;20925;-88
2021/07/04 06:08:38;;;;;;;3.60;2.20;;;22.50;72.90;;;;;;2303413;55;20943;-89
2021/07/04 06:11:04;;;;;;;3.12;2.05;;;22.50;72.90;;;;;;2270448;56;21087;-88
2021/07/04 06:13:30;;;;;;;3.20;2.20;;;22.50;73.00;;;;;;2514927;53;20967;-88
2021/07/04 06:15:59;;;;;;;4.47;2.72;;;22.50;73.00;;;;;;2300203;55;20919;-89
2021/07/04 06:18:25;;;;;;;4.43;2.37;;;22.60;73.10;;;;;;2522588;53;21043;-89
2021/07/04 06:20:51;;;;;;;3.95;2.40;;;22.60;73.10;;;;;;2296720;55;22012;-87
2021/07/04 06:23:18;;;;;;;3.78;2.33;;;22.60;73.10;;;;;;2523699;53;21003;-89
2021/07/04 06:25:46;;;;;;;3.65;2.25;;;22.70;73.30;;;;;;2299777;55;22253;-88
2021/07/04 06:28:12;;;;;;;3.80;2.35;;;22.70;73.30;;;;;;2522258;53;20983;-89
2021/07/04 06:30:39;;;;;;;4.47;2.97;;;22.70;73.20;;;;;;2522720;53;20975;-88
2021/07/04 06:33:05;;;;;;;4.20;2.42;;;22.80;73.20;;;;;;2517706;52;21068;-88
2021/07/04 06:35:31;;;;;;;4.47;2.50;;;22.80;73.20;;;;;;2523361;53;21143;-87
2021/07/04 06:37:58;;;;;;;3.75;2.50;;;22.90;73.10;;;;;;2523212;54;21028;-88
2021/07/04 06:40:24;;;;;;;3.50;2.22;;;23.00;73.20;;;;;;2521925;53;20991;-87
2021/07/04 06:42:50;;;;;;;4.03;2.30;;;23.00;73.30;;;;;;2522278;54;21426;-89
2021/07/04 06:45:17;;;;;;;4.55;2.47;;;23.00;73.30;;;;;;2523905;54;21035;-89
2021/07/04 06:47:44;;;;;;;4.60;2.53;;;23.00;73.30;;;;;;2517591;53;20982;-88
2021/07/04 06:50:11;;;;;;;3.95;2.45;;;23.10;73.50;;;;;;2509684;53;21038;-89
2021/07/04 06:52:39;;;;;;;4.00;2.47;;;23.10;73.40;;;;;;2523446;53;20974;-89
2021/07/04 06:55:06;;;;;;;4.03;2.70;;;23.20;73.50;;;;;;2525361;53;20995;-88
2021/07/04 06:57:32;;;;;;;4.30;2.30;;;23.20;73.40;;;;;;2295425;54;22199;-88
2021/07/04 07:00:34;;;;;;;3.90;2.22;;;23.20;73.50;;;;;;2524506;53;22034;-89
2021/07/04 07:03:00;;;;;;;3.58;2.20;;;23.30;73.60;;;;;;2520279;52;20924;-88
2021/07/04 07:05:27;;;;;;;4.50;2.80;;;23.40;73.80;;;;;;2517579;54;20955;-89
2021/07/04 07:07:53;;;;;;;4.97;2.53;;;23.40;73.60;;;;;;2516826;53;20938;-90
2021/07/04 07:10:20;;;;;;;5.00;2.95;;;23.50;73.50;;;;;;2523859;53;20936;-88
2021/07/04 07:12:46;;;;;;;3.90;2.40;;;23.50;73.30;;;;;;2298427;55;20986;-88
2021/07/04 07:15:14;;;;;;;4.55;3.15;;;23.60;73.30;;;;;;2298275;55;21067;-88
2021/07/04 07:17:43;;;;;;;4.47;2.87;;;23.60;73.10;;;;;;2498026;54;20900;-89
2021/07/04 07:20:12;;;;;;;5.32;2.80;;;23.60;73.20;;;;;;2523778;53;20947;-89
2021/07/04 07:22:42;;;;;;;4.45;2.97;;;23.70;73.70;;;;;;2524600;53;20955;-88
2021/07/04 07:25:08;;;;;;;4.12;2.70;;;23.80;73.90;;;;;;2511375;55;20986;-87
2021/07/04 07:27:35;;;;;;;4.85;2.60;;;23.80;74.10;;;;;;2290479;55;20928;-89
2021/07/04 07:30:02;;;;;;;3.92;2.50;;;24.00;74.10;;;;;;2525485;53;20959;-89
2021/07/04 07:32:28;;;;;;;4.60;2.65;;;24.00;73.90;;;;;;2296802;55;21552;-88
2021/07/04 07:34:55;;;;;;;3.90;2.62;;;24.10;73.70;;;;;;2301240;55;22104;-90
2021/07/04 07:37:22;;;;;;;4.85;3.40;;;24.20;74.20;;;;;;2301543;55;21007;-89
2021/07/04 07:39:49;;;;;;;4.37;3.00;;;24.30;73.40;;;;;;2504720;53;20981;-87
2021/07/04 07:42:15;;;;;;;4.70;2.65;;;24.30;73.50;;;;;;2522883;53;20995;-87
2021/07/04 07:44:42;;;;;;;4.05;2.78;;;24.40;73.80;;;;;;2524011;55;21011;-88
2021/07/04 07:47:09;;;;;;;4.45;2.97;;;24.50;74.00;;;;;;2524199;55;20999;-89
2021/07/04 07:49:35;;;;;;;3.92;2.80;;;24.60;74.60;;;;;;2299324;55;21056;-88
2021/07/04 07:52:03;;;;;;;4.68;2.78;;;24.70;73.50;;;;;;2524105;54;20986;-89
2021/07/04 07:54:30;;;;;;;4.75;2.70;;;24.80;72.90;;;;;;2523779;54;22033;-87
2021/07/04 07:56:57;;;;;;;5.25;2.92;;;24.80;72.60;;;;;;2520552;54;21520;-89
2021/07/04 07:59:26;;;;;;;3.87;2.47;;;24.90;72.40;;;;;;2523326;55;21047;-88
2021/07/04 08:01:52;;;;;;;4.70;2.70;;;25.00;72.20;;;;;;2518900;55;20967;-89
2021/07/04 08:04:19;;;;;;;5.03;2.50;;;25.00;72.40;;;;;;2523524;54;20959;-89
2021/07/04 08:06:46;;;;;;;5.22;2.90;;;25.10;72.10;;;;;;2289744;55;21052;-89
2021/07/04 08:09:12;;;;;;;3.78;2.40;;;25.10;71.80;;;;;;2289759;55;21051;-91
2021/07/04 08:11:39;;;;;;;4.05;2.72;;;25.20;71.60;;;;;;2523625;55;20955;-89
2021/07/04 08:14:05;;;;;;;3.50;2.22;;;25.20;71.40;;;;;;2524228;55;20944;-88
2021/07/04 08:16:33;;;;;;;4.00;2.58;;;25.30;71.30;;;;;;2520792;55;21009;-85
2021/07/04 08:19:00;;;;;;;4.07;2.75;;;25.40;70.50;;;;;;2293535;55;20960;-83
2021/07/04 08:21:29;;;;;;;5.32;3.10;;;25.40;70.40;;;;;;2519363;54;21171;-84
2021/07/04 08:23:56;;;;;;;7.35;2.42;;;25.40;69.50;;;;;;2518959;55;20968;-83
2021/07/04 08:26:23;;;;;;;3.60;2.35;;;25.40;69.90;;;;;;2518271;55;21750;-84
2021/07/04 08:28:50;;;;;;;4.20;2.62;;;25.40;70.20;;;;;;2518099;55;21627;-83
2021/07/04 08:31:16;;;;;;;3.97;2.53;;;25.50;69.90;;;;;;2295409;55;21073;-83
2021/07/04 08:33:43;;;;;;;3.97;2.62;;;25.50;69.70;;;;;;2285646;55;22000;-83
2021/07/04 08:36:12;;;;;;;3.55;2.60;;;25.50;69.60;;;;;;2518333;55;21463;-84
2021/07/04 08:38:39;;;;;;;3.72;2.55;;;25.60;69.60;;;;;;2518760;55;20971;-84
2021/07/04 08:41:17;;;;;;;3.85;2.50;;;25.60;69.50;;;;;;2520302;55;21026;-83
2021/07/04 08:43:46;;;;;;;3.70;2.20;;;25.60;69.10;;;;;;2521135;54;21395;-83
2021/07/04 08:46:32;;;;;;;4.15;2.60;;;25.70;69.70;;;;;;2477336;55;20997;-84
2021/07/04 08:48:59;;;;;;;4.60;2.75;;;25.70;69.50;;;;;;2488131;55;21018;-84
2021/07/04 08:51:25;;;;;;;3.75;2.30;;;25.70;69.30;;;;;;2491792;55;21031;-85
2021/07/04 08:53:52;;;;;;;3.70;2.50;;;25.70;69.20;;;;;;2514834;55;21083;-83
2021/07/04 08:56:19;;;;;;;3.40;2.22;;;25.70;68.80;;;;;;2290408;55;21006;-84
2021/07/04 08:58:47;;;;;;;3.60;2.20;;;25.80;68.60;;;;;;2516199;53;21401;-89
2021/07/04 09:01:26;;;;;;;3.53;2.12;;;25.80;68.40;;;;;;2518172;53;21062;-91
2021/07/04 09:03:55;;;;;;;3.70;2.30;;;25.80;68.30;;;;;;2282038;55;20968;-90
2021/07/04 09:06:43;;;;;;;4.00;2.70;;;25.90;67.80;;;;;;2300295;55;21010;-88
2021/07/04 09:09:27;;;;;;;3.40;2.40;;;25.90;65.80;;;;;;2501284;52;21402;-88
2021/07/04 09:12:04;;;;;;;4.10;2.40;;;25.90;66.40;;;;;;2278282;55;22028;-88
2021/07/04 09:14:44;;;;;;;3.42;2.20;;;26.00;66.30;;;;;;2524338;53;21014;-90
2021/07/04 09:17:34;;;;;;;3.62;2.50;;;26.00;66.30;;;;;;2522986;53;21039;-90
2021/07/04 09:20:03;;;;;;;3.90;2.53;;;26.00;66.30;;;;;;2298289;55;20936;-90
2021/07/04 09:22:38;;;;;;;4.53;2.35;;;26.10;66.90;;;;;;2499363;54;20994;-89
2021/07/04 09:25:19;;;;;;;3.62;2.47;;;26.00;66.60;;;;;;2298611;55;21588;-89
2021/07/04 09:31:19;;;;;;;3.85;2.55;;;26.00;66.40;;;;;;2512840;53;21071;-88
2021/07/04 09:33:46;;;;;;;3.42;2.15;;;26.10;66.10;;;;;;2520866;53;20939;-88
2021/07/04 09:36:13;;;;;;;3.20;2.00;;;26.10;67.20;;;;;;2294614;55;20967;-86
2021/07/04 09:38:43;;;;;;;3.30;2.30;;;26.00;67.30;;;;;;2525035;53;20956;-88
2021/07/04 09:41:13;;;;;;;4.60;2.60;;;26.00;67.50;;;;;;2525709;53;20975;-88
2021/07/04 09:43:39;;;;;;;3.70;2.22;;;26.00;67.40;;;;;;2521862;53;21043;-87
2021/07/04 09:46:18;;;;;;;5.50;2.47;;;26.00;67.70;;;;;;2526592;55;21039;-88
2021/07/04 09:48:51;;;;;;;3.90;2.65;;;26.10;66.80;;;;;;2523933;53;20915;-87
2021/07/04 09:51:27;;;;;;;6.12;2.95;;;26.10;67.40;;;;;;2527561;53;21495;-88
2021/07/04 09:54:08;;;;;;;3.92;2.70;;;26.10;66.80;;;;;;2520719;53;20916;-88
2021/07/04 09:56:35;;;;;;;5.62;3.10;;;26.10;66.80;;;;;;2486551;54;20996;-90
2021/07/04 09:59:04;;;;;;;5.45;2.92;;;26.10;66.80;;;;;;2521396;53;20953;-89
2021/07/04 10:01:42;;;;;;;4.12;2.58;;;26.00;66.60;;;;;;2298965;55;20991;-88
2021/07/04 10:04:26;;;;;;;37.22;16.40;;;26.00;65.90;;;;;;2296526;55;20952;-86
2021/07/04 10:06:52;;;;;;;1111.25;230.23;;;26.00;65.90;;;;;;2297781;55;20930;-88
2021/07/04 10:09:19;;;;;;;1173.68;295.75;;;25.90;67.00;;;;;;2521267;53;20956;-86
2021/07/04 10:11:49;;;;;;;1557.85;375.02;;;25.90;67.00;;;;;;2504809;55;20956;-88
2021/07/04 10:14:15;;;;;;;161.40;47.30;;;25.90;66.70;;;;;;2275984;55;20950;-87
2021/07/04 10:16:41;;;;;;;6.65;4.47;;;25.90;67.00;;;;;;2523714;55;21486;-86
2021/07/04 10:19:08;;;;;;;3.75;2.67;;;25.90;66.90;;;;;;2520781;54;20951;-85
2021/07/04 10:21:34;;;;;;;215.25;56.08;;;25.90;67.20;;;;;;2521791;55;21016;-85
2021/07/04 10:24:01;;;;;;;3.03;2.10;;;25.90;67.30;;;;;;2520471;55;21026;-86
2021/07/04 10:26:27;;;;;;;161.62;33.25;;;25.90;67.50;;;;;;2522165;54;21082;-86
2021/07/04 10:28:57;;;;;;;112.97;21.12;;;25.90;67.40;;;;;;2523436;55;21027;-86
2021/07/04 10:31:24;;;;;;;40.33;7.03;;;25.90;67.00;;;;;;2294926;55;21051;-85
2021/07/04 10:34:09;;;;;;;4.00;2.60;;;25.90;67.20;;;;;;2521139;55;20935;-85
2021/07/04 10:37:04;;;;;;;6.62;2.40;;;26.10;66.70;;;;;;2522514;55;20911;-87
2021/07/04 10:39:31;;;;;;;4.68;2.55;;;26.00;65.70;;;;;;2296289;55;20999;-88
2021/07/04 10:42:03;;;;;;;4.25;2.92;;;25.90;65.80;;;;;;2295395;55;20971;-87
2021/07/04 10:44:36;;;;;;;;;;;25.90;65.00;;;;;;2524918;55;20974;-87
2021/07/04 10:47:13;;;;;;;4.12;2.40;;;25.90;64.70;;;;;;2300662;55;20060;-87
2021/07/04 10:49:44;;;;;;;4.15;2.60;;;25.90;64.90;;;;;;2498170;55;20951;-86
2021/07/04 10:52:13;;;;;;;3.70;2.00;;;25.90;65.40;;;;;;2522611;55;20980;-86
2021/07/04 10:54:44;;;;;;;3.08;1.90;;;25.90;65.70;;;;;;2520287;53;20935;-87
2021/07/04 10:57:32;;;;;;;3.23;2.20;;;25.90;66.20;;;;;;2522567;54;21709;-86
2021/07/04 11:00:31;;;;;;;4.07;1.95;;;25.90;65.70;;;;;;2522011;55;20994;-87
2021/07/04 11:02:59;;;;;;;3.47;2.00;;;26.00;66.00;;;;;;2520314;55;21445;-86
2021/07/04 11:05:59;;;;;;;3.75;2.40;;;26.10;67.20;;;;;;2298257;55;21301;-87
2021/07/04 11:08:31;;;;;;;3.75;2.35;;;26.20;65.70;;;;;;2519811;54;20996;-86
2021/07/04 11:10:59;;;;;;;4.32;2.53;;;26.20;67.20;;;;;;2292260;55;20987;-86
2021/07/04 11:13:33;;;;;;;3.58;2.17;;;26.30;67.10;;;;;;2520472;55;20955;-87
2021/07/04 11:16:09;;;;;;;3.87;2.17;;;26.40;67.00;;;;;;2496176;55;21011;-86
2021/07/04 11:18:40;;;;;;;3.90;2.03;;;26.50;66.60;;;;;;2293231;55;20916;-86
2021/07/04 11:21:06;;;;;;;4.60;2.60;;;26.60;67.10;;;;;;2520927;55;21040;-86
2021/07/04 11:23:32;;;;;;;4.37;2.80;;;26.60;66.00;;;;;;2521117;55;20979;-88
2021/07/04 11:26:20;;;;;;;3.92;2.40;;;26.70;66.40;;;;;;2296571;55;20998;-86
2021/07/04 11:28:48;;;;;;;4.30;2.12;;;26.80;66.40;;;;;;2514721;55;21099;-87
2021/07/04 11:31:23;;;;;;;3.50;2.15;;;26.80;66.80;;;;;;2513949;54;20983;-86
2021/07/04 11:33:50;;;;;;;4.07;2.12;;;26.90;66.80;;;;;;2497019;55;20983;-87
2021/07/04 11:36:26;;;;;;;3.60;1.95;;;27.10;67.10;;;;;;2523091;54;21024;-86
2021/07/04 11:39:06;;;;;;;3.30;2.25;;;27.20;67.00;;;;;;2297647;55;21017;-85
2021/07/04 11:41:50;;;;;;;3.10;1.80;;;27.30;66.40;;;;;;2518485;55;20987;-86
2021/07/04 11:44:21;;;;;;;3.67;2.35;;;27.40;65.20;;;;;;2300833;55;21059;-85
2021/07/04 11:46:49;;;;;;;3.72;2.00;;;27.50;65.30;;;;;;2493870;53;21078;-87
2021/07/04 11:49:16;;;;;;;3.15;2.12;;;27.60;65.60;;;;;;2523166;53;21925;-87
2021/07/04 11:51:53;;;;;;;3.83;2.15;;;27.70;65.40;;;;;;2497683;54;21040;-85
2021/07/04 11:54:32;;;;;;;3.37;1.85;;;27.80;65.10;;;;;;2296834;54;20995;-85
2021/07/04 11:57:34;;;;;;;2.65;1.62;;;27.80;65.40;;;;;;2493988;54;21335;-87
2021/07/04 12:00:06;;;;;;;3.10;1.90;;;27.90;64.20;;;;;;2297926;55;20992;-86
2021/07/04 12:02:34;;;;;;;;;;;28.10;65.90;;;;;;2294562;55;20986;-85
2021/07/04 12:05:11;;;;;;;2.65;1.73;;;28.10;64.20;;;;;;2524131;53;20037;-86
2021/07/04 12:07:37;;;;;;;3.12;1.95;;;28.20;63.80;;;;;;2523174;53;20986;-85
2021/07/04 12:10:05;;;;;;;2.65;1.48;;;28.20;64.60;;;;;;2278513;55;20917;-84
2021/07/04 12:12:33;;;;;;;2.90;1.67;;;28.20;64.00;;;;;;2289316;55;20914;-85
2021/07/04 12:15:19;;;;;;;3.12;1.70;;;28.20;63.90;;;;;;2521407;53;20983;-86
2021/07/04 12:17:47;;;;;;;4.30;1.52;;;28.30;63.30;;;;;;2523676;53;21336;-86
2021/07/04 12:20:28;;;;;;;2.62;1.60;;;28.30;64.30;;;;;;2524204;53;21961;-87
2021/07/04 12:23:05;;;;;;;3.37;1.42;;;28.30;63.50;;;;;;2524779;53;20927;-86
2021/07/04 12:25:33;;;;;;;2.60;1.42;;;28.30;62.70;;;;;;2301567;55;20940;-86
2021/07/04 12:28:07;;;;;;;3.25;1.60;;;28.30;64.00;;;;;;2295094;55;20860;-83
2021/07/04 12:30:43;;;;;;;2.80;1.60;;;28.40;63.60;;;;;;2520265;55;21065;-84
2021/07/04 12:33:11;;;;;;;2.80;1.90;;;28.40;62.80;;;;;;2510486;55;20982;-84
2021/07/04 12:36:22;;;;;;;2.92;1.60;;;28.40;62.10;;;;;;2295552;55;20935;-85
2021/07/04 12:38:52;;;;;;;2.80;1.52;;;28.40;60.00;;;;;;2517898;55;20955;-84
2021/07/04 12:41:18;;;;;;;3.70;1.67;;;28.40;62.20;;;;;;2517777;55;21000;-84
2021/07/04 12:43:49;;;;;;;2.80;1.70;;;28.30;61.90;;;;;;2293690;55;21030;-85
2021/07/04 12:46:23;;;;;;;2.47;1.33;;;28.30;61.50;;;;;;2517052;54;20939;-82
2021/07/04 12:48:51;;;;;;;2.37;1.23;;;28.20;61.40;;;;;;2518887;55;21011;-83
2021/07/04 12:51:30;;;;;;;2.47;1.30;;;28.20;62.30;;;;;;2516491;55;20951;-84
2021/07/04 12:53:56;;;;;;;2.50;1.40;;;28.20;61.30;;;;;;2516960;55;20995;-83
2021/07/04 12:56:24;;;;;;;4.22;1.25;;;28.20;62.40;;;;;;2519525;55;21485;-84
2021/07/04 12:58:52;;;;;;;2.00;0.90;;;28.10;61.60;;;;;;2301670;55;20959;-83